Portada
METAR-TAF:

METAR-TAF

Aeropuertos :

Aeropuerto Internacional Eleftherios Venizelos

Atenas, Grecia

latitud: 37-56N, longitud: 023-56E, altitud: 94 m

Observación

El informe se hizo hace 21 minutos, a las 10:20 UTC
Viento 12 kt del noreste
Temperatura 25°C
Humedad 54%
Presión 1018 hPa
Visibilidad 10 km o más
sin nubes por debajo de 1500 m y sin presencia de cumulonimbus.

METAR: LGAV 231020Z 04012KT CAVOK 25/15 Q1018 NOSIG

Hora: 13:41 (10:41 UTC)

Pronóstico

El informe se hizo hace 5 horas y 41 minutos, a las 05:00 UTC
Pronóstico válido del 23 a las 06 UTC al 24 a las 06 UTC
Viento 10 kt del norte-noreste
Visibilidad 10 km o más
Escasas nubes a una altura de 3000 ft
Temporalmente
del 23 a las 06 UTC al 23 a las 10 UTC
Viento 13 kt del norte-noreste con ráfagas de 23 kt

TAF: LGAV 230500Z 2306/2406 03010KT 9999 FEW030 TEMPO 2306/2310 03013G23KT

Observaciones y pronósticos meteorológicos de más de 4000 aeropuertos (mensajes METAR y TAF).

Los puntos amarillos y rojos representan las estaciones disponibles.

Ponga el ratón en el punto deseado para ver el nombre de la estación.

Haga clic para ver las observaciones y los pronósticos meteorológicos.

Para cambiar el mapa : haga clic en los botones verdes con una cruz de color negro para hacer un zoom, en el botón verde con un guión para alejar o en las flechas verdes para mapas adyacentes.


METAR-TAF: